AirNav   Everest Fuels
 
 532 users online  

57KY Belcher Regional Airport
Belcher, Kentucky, USA

GOING TO BELCHER?


FAA INFORMATION EFFECTIVE 31 DECEMBER 2020

Location

FAA Identifier: 57KY
Lat/Long: 37-22-10.0000N 082-19-27.0000W
37-22.166667N 082-19.450000W
37.3694444,-82.3241667
(estimated)
Elevation: 1700 ft. / 518 m (estimated)
Variation: 06W (1965)
From city: 1 mile E of BELCHER, KY
Time zone: UTC -5 (UTC -4 during Daylight Saving Time)
Zip code: 41513

Airport Operations

Airport use: Private use. Permission required prior to landing
Activation date: 11/2001
Control tower: no
ARTCC: INDIANAPOLIS CENTER
FSS: LOUISVILLE FLIGHT SERVICE STATION
Attendance: UNATNDD
Wind indicator: yes
Segmented circle: no

Airport Communications

WX AWOS-3PT at PBX (16 nm NW): 121.225 (606-437-6701)

Nearby radio navigation aids

VOR radial/distance  VOR name  Freq  Var
GZGr342/34.7GLADE SPRING VOR/DME110.2002W

Airport Services

Runway Information

Runway 4/22

Dimensions: 3000 x 150 ft. / 914 x 46 m
Surface: turf
RUNWAY 4  RUNWAY 22
Traffic pattern: leftleft

Airport Ownership and Management from official FAA records

Ownership: Privately-owned
Owner: F. R. BELCHER
PO BOX 10
BELCHER, KY 41513
Phone 606-754-8876
Manager: F. R. BELCHER
PO BOX 10
BELCHER, KY 41513
Phone 606-754-8876

Additional Remarks

FOR CD CTC INDIANAPOLIS ARTCC AT 317-247-2411.

Instrument Procedures

There are no published instrument procedures at 57KY.

Some nearby airports with instrument procedures:

KPBX - Pike County Airport-Hatcher Field (16 nm NW)
KEBD - Appalachian Regional Airport (21 nm NE)
KLNP - Lonesome Pine Airport (25 nm SW)
KSJS - Big Sandy Regional Airport (27 nm NW)
KJFZ - Tazewell County Airport (31 nm SE)
 
Loc | Ops | Rwys | IFR | FBO | Links
Com | Nav | Svcs | Stats | Notes
Area around 57KY (Belcher Regional Airport)
 
Road maps at: MapQuest Bing Google
 
Aerial photo
No photo
 
Sectional chart

 
Airport distance calculator
Flying to Belcher Regional Airport? Find the distance to fly.

From to 57KY

Sunrise and sunset
Times for 18-Jan-2021
 Local
(UTC-5)
 Zulu
(UTC)
Morning civil twilight07:1412:14
Sunrise07:4312:43
Sunset17:3722:37
Evening civil twilight18:0523:05

Current date and time
Zulu (UTC)  18-Jan-2021 12:17:32
Local (UTC-5)  18-Jan-2021 07:17:32
 
METAR
KPBX 
16nm NW 
181155Z AUTO 24005KT 10SM OVC012 M01/M01 A2988 RMK AO2 7//// T10111011 11006 21013
KLNP 
26nm S 
181155Z AUTO 25004KT 7SM -SN OVC010 M02/M03 A2984 RMK AO2
KSJS 
27nm NW 
AWOS-3 120.175 606-298-4143
181155Z AUTO 26005KT 7SM OVC013 00/M01 A2988 RMK AO2 T10011015 10003 21005
KJFZ 
31nm SE 
181155Z AUTO 26007KT 10SM -SN BKN021 OVC026 M03/M05 A2982 RMK AO2 T10311053 11008 21037
TAF
KSJS 
27nm NW 
180729Z 1807/1906 VRB05KT 5SM -SHSN OVC025 FM181200 26006KT P6SM VCSH OVC020 FM190200 VRB05KT P6SM BKN035
NOTAMs
Click for the latest NOTAMs
NOTAMs are issued by the DoD/FAA and will open in a separate window not controlled by AirNav.

 

 
 

Would you like to see your business listed on this page?

 If your business provides an interesting product or service to pilots, flight crews, aircraft, or users of the Belcher Regional Airport, you should consider listing it here.  To start the listing process, click on the button below
 
Add a business
 

Other Pages about Belcher Regional Airport

Update a link
 
Copyright © AirNav, LLC. All rights reserved. Privacy Policy  Contact